createdAt,value
2023-03-30T00:01:22.137Z,12.10
2023-03-30T00:03:55.574Z,12.10
2023-03-30T00:06:24.561Z,12.20
2023-03-30T00:08:57.493Z,12.20
2023-03-30T00:11:27.810Z,12.10
2023-03-30T00:13:56.747Z,12.20
2023-03-30T00:16:25.493Z,12.20
2023-03-30T00:18:55.897Z,12.10
2023-03-30T00:21:25.093Z,12.10
2023-03-30T00:23:53.954Z,12.10
2023-03-30T00:26:22.932Z,12.00
2023-03-30T00:28:51.637Z,12.00
2023-03-30T00:31:20.761Z,11.90
2023-03-30T00:33:49.610Z,11.90
2023-03-30T00:36:20.086Z,12.00
2023-03-30T00:38:49.544Z,12.10
2023-03-30T00:41:18.411Z,12.10
2023-03-30T00:44:03.049Z,12.10
2023-03-30T00:46:33.753Z,12.10
2023-03-30T00:49:07.662Z,12.10
2023-03-30T00:51:43.876Z,12.10
2023-03-30T00:54:18.333Z,12.10
2023-03-30T00:56:47.815Z,12.00
2023-03-30T00:59:16.778Z,12.10
2023-03-30T01:01:50.384Z,12.30
2023-03-30T01:04:19.550Z,12.40
2023-03-30T01:06:52.404Z,12.40
2023-03-30T01:09:22.930Z,12.40
2023-03-30T01:11:51.909Z,12.40
2023-03-30T01:14:20.837Z,12.40
2023-03-30T01:17:03.725Z,12.40
2023-03-30T01:20:16.612Z,12.30
2023-03-30T01:23:27.389Z,12.40
2023-03-30T01:26:46.190Z,12.30
2023-03-30T01:29:30.449Z,12.40
2023-03-30T01:32:48.065Z,12.50
2023-03-30T01:35:35.342Z,12.60
2023-03-30T01:38:50.812Z,12.60
2023-03-30T01:41:36.481Z,12.60
2023-03-30T01:44:16.634Z,12.60
2023-03-30T01:46:53.180Z,12.60
2023-03-30T01:49:31.123Z,12.70
2023-03-30T01:52:10.342Z,12.70
2023-03-30T01:54:45.866Z,12.60
2023-03-30T01:57:20.729Z,12.60
2023-03-30T01:59:57.584Z,12.70
2023-03-30T02:02:33.746Z,12.80
2023-03-30T02:05:06.537Z,12.80
2023-03-30T02:07:39.810Z,12.80
2023-03-30T02:10:12.511Z,12.80
2023-03-30T02:12:43.848Z,12.90
2023-03-30T02:15:16.025Z,12.90
2023-03-30T02:17:47.612Z,13.00
2023-03-30T02:20:17.801Z,12.80
2023-03-30T02:22:47.707Z,12.60
2023-03-30T02:25:17.639Z,12.60
2023-03-30T02:27:48.625Z,12.70
2023-03-30T02:30:18.783Z,12.70
2023-03-30T02:32:53.963Z,12.70
2023-03-30T02:35:44.032Z,12.60
2023-03-30T02:38:47.209Z,12.50
2023-03-30T02:41:36.155Z,12.50
2023-03-30T02:44:27.383Z,12.30
2023-03-30T02:47:09.697Z,12.20
2023-03-30T02:50:00.192Z,12.20
2023-03-30T02:52:53.529Z,12.30
2023-03-30T02:55:35.791Z,12.40
2023-03-30T02:58:13.647Z,12.40
2023-03-30T03:00:52.258Z,12.50
2023-03-30T03:03:27.915Z,12.70
2023-03-30T03:05:57.525Z,12.70
2023-03-30T03:08:28.295Z,12.80
2023-03-30T03:10:58.705Z,12.80
2023-03-30T03:13:28.211Z,12.90
2023-03-30T03:16:04.092Z,12.70
2023-03-30T03:18:41.942Z,12.90
2023-03-30T03:21:23.106Z,12.90
2023-03-30T03:24:04.818Z,13.00
2023-03-30T03:26:38.256Z,13.00
2023-03-30T03:29:07.503Z,13.10
2023-03-30T03:31:38.305Z,13.00
2023-03-30T03:34:09.921Z,13.00
2023-03-30T03:36:42.156Z,13.00
2023-03-30T03:39:13.714Z,13.00
2023-03-30T03:42:17.335Z,12.90
2023-03-30T03:44:53.029Z,12.90
2023-03-30T03:47:26.046Z,12.90
2023-03-30T03:49:55.075Z,12.90
2023-03-30T03:52:26.071Z,12.90
2023-03-30T03:54:58.966Z,12.90
2023-03-30T03:57:31.817Z,12.80
2023-03-30T04:00:03.677Z,12.80
2023-03-30T04:02:49.646Z,12.80
2023-03-30T09:00:20.759Z,14.80
2023-03-30T09:03:08.526Z,14.80
2023-03-30T09:05:47.163Z,14.90
2023-03-30T09:08:22.919Z,14.80
2023-03-30T09:10:59.654Z,14.80
2023-03-30T09:13:34.166Z,14.90
2023-03-30T09:16:29.731Z,14.90
2023-03-30T09:19:03.439Z,14.70
2023-03-30T09:21:35.370Z,14.50
2023-03-30T09:24:38.386Z,14.70
2023-03-30T09:27:33.870Z,14.60
2023-03-30T09:30:22.148Z,14.60
2023-03-30T09:34:00.357Z,14.20
2023-03-30T09:44:03.991Z,14.10
2023-03-30T09:46:51.075Z,14.40
2023-03-30T09:49:33.851Z,14.60
2023-03-30T09:52:28.201Z,14.50
2023-03-30T09:55:23.973Z,14.60
2023-03-30T09:58:12.359Z,14.70
2023-03-30T10:00:48.886Z,14.60
2023-03-30T10:03:34.316Z,14.60
2023-03-30T10:06:13.399Z,14.60
2023-03-30T10:08:50.820Z,14.50
2023-03-30T10:11:56.562Z,14.50
2023-03-30T10:14:35.296Z,14.70
2023-03-30T10:17:07.176Z,14.60
2023-03-30T10:19:53.466Z,14.60
2023-03-30T10:22:54.085Z,14.50
2023-03-30T10:25:25.824Z,13.90
2023-03-30T10:28:03.010Z,13.90
2023-03-30T10:30:32.952Z,13.80
2023-03-30T10:33:15.881Z,13.90
2023-03-30T10:36:00.835Z,13.90
2023-03-30T10:38:35.772Z,13.90
2023-03-30T10:41:15.101Z,13.90
2023-03-30T10:43:46.103Z,14.10
2023-03-30T10:46:20.415Z,14.20
2023-03-30T10:49:09.331Z,14.40
2023-03-30T10:51:59.635Z,14.50
2023-03-30T10:54:39.218Z,14.50
2023-03-30T10:57:14.262Z,14.50
2023-03-30T11:00:22.981Z,14.60
2023-03-30T11:03:03.593Z,14.70
2023-03-30T11:05:37.084Z,14.80
2023-03-30T11:08:23.581Z,14.90
2023-03-30T11:10:59.435Z,15.10
2023-03-30T11:13:35.241Z,15.10
2023-03-30T11:16:46.829Z,14.80
2023-03-30T11:19:26.591Z,14.80
2023-03-30T11:22:07.522Z,14.70
2023-03-30T11:24:37.420Z,14.80
2023-03-30T11:27:17.630Z,14.90
2023-03-30T11:29:53.530Z,14.80
2023-03-30T11:32:34.488Z,14.90
2023-03-30T11:35:14.044Z,14.80
2023-03-30T11:37:54.653Z,14.70
2023-03-30T11:40:28.120Z,14.50
2023-03-30T11:42:58.892Z,14.60
2023-03-30T11:45:50.831Z,14.70
2023-03-30T11:48:43.300Z,14.90
2023-03-30T11:51:30.191Z,15.00
2023-03-30T11:54:16.181Z,15.00
2023-03-30T11:56:52.184Z,15.00
2023-03-30T11:59:34.606Z,14.90
2023-03-30T12:02:20.975Z,15.00
2023-03-30T12:04:58.962Z,15.00
2023-03-30T12:07:38.286Z,15.00
2023-03-30T12:10:16.829Z,15.00
2023-03-30T12:12:49.444Z,14.90
2023-03-30T12:15:35.427Z,14.90
2023-03-30T12:18:17.225Z,14.90
2023-03-30T12:20:55.241Z,15.00
2023-03-30T12:23:40.909Z,15.10
2023-03-30T12:26:27.361Z,15.20
2023-03-30T12:29:52.462Z,15.20
2023-03-30T12:32:20.266Z,15.20
2023-03-30T12:34:49.474Z,15.30
2023-03-30T12:37:23.362Z,15.40
2023-03-30T12:40:00.333Z,15.40
2023-03-30T12:42:35.691Z,15.40
2023-03-30T12:45:33.269Z,15.50
2023-03-30T12:48:28.441Z,15.70
2023-03-30T12:51:14.961Z,15.70
2023-03-30T12:54:14.225Z,15.70
2023-03-30T12:56:58.121Z,15.70
2023-03-30T13:00:05.345Z,15.80
2023-03-30T13:03:16.848Z,15.90
2023-03-30T13:05:51.572Z,15.90
2023-03-30T13:08:32.573Z,15.90
2023-03-30T13:11:14.548Z,16.00
2023-03-30T13:13:56.993Z,15.70
2023-03-30T13:16:50.025Z,15.50
2023-03-30T13:19:29.135Z,15.30
2023-03-30T13:22:05.102Z,15.10
2023-03-30T13:24:47.847Z,15.10
2023-03-30T13:27:33.157Z,15.20
2023-03-30T13:30:08.292Z,15.30
2023-03-30T13:33:13.048Z,15.40
2023-03-30T13:36:00.252Z,15.80
2023-03-30T13:39:10.036Z,16.90
2023-03-30T13:41:54.690Z,17.70
2023-03-30T13:44:43.055Z,17.70
2023-03-30T13:47:34.366Z,17.60
2023-03-30T13:50:08.669Z,17.40
2023-03-30T13:52:46.178Z,17.40
2023-03-30T13:55:24.110Z,17.50
2023-03-30T13:58:01.147Z,17.70
2023-03-30T14:00:45.871Z,18.10
2023-03-30T14:03:39.418Z,18.50
2023-03-30T14:06:16.997Z,18.70
2023-03-30T14:08:50.240Z,19.70
2023-03-30T14:11:22.824Z,20.10
2023-03-30T14:13:54.350Z,19.80
2023-03-30T14:16:27.334Z,19.90
2023-03-30T14:19:13.777Z,20.90
2023-03-30T14:21:46.412Z,21.80
2023-03-30T14:24:19.905Z,22.60
2023-03-30T14:26:50.779Z,22.90
2023-03-30T14:29:31.360Z,22.20
2023-03-30T14:34:36.043Z,21.10
2023-03-30T14:37:07.745Z,21.40
2023-03-30T14:39:42.499Z,21.50
2023-03-30T14:42:18.901Z,21.90
2023-03-30T14:44:51.613Z,22.20
2023-03-30T14:47:24.123Z,22.60
2023-03-30T14:49:56.263Z,23.10
2023-03-30T14:52:30.137Z,23.60
2023-03-30T14:55:06.626Z,24.00
2023-03-30T14:57:44.468Z,24.70
2023-03-30T15:00:18.342Z,25.30
2023-03-30T15:02:49.617Z,25.10
2023-03-30T15:05:20.104Z,23.70
2023-03-30T15:07:52.020Z,22.70
2023-03-30T15:10:28.496Z,22.40
2023-03-30T15:12:59.266Z,22.50
2023-03-30T15:15:32.887Z,22.80
2023-03-30T15:18:04.573Z,23.20
2023-03-30T15:20:34.077Z,23.40
2023-03-30T15:23:03.035Z,23.20
2023-03-30T15:25:36.512Z,23.10
2023-03-30T15:28:08.790Z,23.20
2023-03-30T15:30:42.565Z,22.80
2023-03-30T15:33:23.603Z,21.90
2023-03-30T15:35:54.201Z,21.20
2023-03-30T15:38:34.106Z,20.10
2023-03-30T15:41:05.802Z,19.20
2023-03-30T15:43:54.288Z,18.60
2023-03-30T15:46:23.204Z,18.00
2023-03-30T15:48:54.800Z,17.70
2023-03-30T15:51:30.441Z,17.50
2023-03-30T15:54:04.381Z,17.30
2023-03-30T15:56:39.488Z,17.50
2023-03-30T15:59:16.021Z,17.60
2023-03-30T16:01:52.859Z,17.80
2023-03-30T16:04:24.136Z,17.80
2023-03-30T16:06:53.605Z,18.00
2023-03-30T16:09:22.966Z,18.20
2023-03-30T16:11:53.045Z,18.90
2023-03-30T16:14:22.702Z,19.40
2023-03-30T16:16:51.820Z,19.30
2023-03-30T16:19:21.036Z,18.80
2023-03-30T16:21:49.793Z,18.30
2023-03-30T16:24:18.320Z,17.90
2023-03-30T16:26:46.842Z,17.50
2023-03-30T16:29:22.849Z,17.10
2023-03-30T16:31:53.024Z,16.70
2023-03-30T16:34:22.993Z,16.70
2023-03-30T16:36:55.683Z,16.80
2023-03-30T16:39:27.688Z,17.30
2023-03-30T16:41:57.380Z,17.60
2023-03-30T16:44:27.457Z,18.10
2023-03-30T16:46:55.995Z,18.40
2023-03-30T16:49:27.099Z,18.50
2023-03-30T16:51:57.928Z,17.80
2023-03-30T16:54:32.678Z,17.70
2023-03-30T16:57:02.501Z,17.70
2023-03-30T16:59:34.161Z,17.80
2023-03-30T17:02:03.517Z,17.50
2023-03-30T17:04:32.249Z,17.60
2023-03-30T17:07:00.670Z,17.60
2023-03-30T17:09:30.036Z,17.60
2023-03-30T17:11:58.719Z,17.40
2023-03-30T17:14:27.803Z,16.90
2023-03-30T17:16:57.921Z,16.40
2023-03-30T17:19:28.051Z,16.10
2023-03-30T17:21:56.711Z,15.70
2023-03-30T17:24:25.366Z,15.40
2023-03-30T17:26:53.892Z,15.20
2023-03-30T17:29:22.322Z,15.10
2023-03-30T17:31:50.932Z,15.10
2023-03-30T17:34:20.916Z,15.10
2023-03-30T17:36:49.390Z,15.10
2023-03-30T17:39:17.843Z,14.80
2023-03-30T17:41:46.265Z,14.80
2023-03-30T17:44:14.762Z,14.80
2023-03-30T17:46:43.934Z,14.80
2023-03-30T17:49:18.247Z,14.80
2023-03-30T17:51:48.292Z,14.70
2023-03-30T17:54:16.804Z,14.70
2023-03-30T17:56:45.492Z,14.80
2023-03-30T17:59:14.270Z,14.90
2023-03-30T18:01:43.420Z,14.90
2023-03-30T18:04:12.066Z,14.80
2023-03-30T18:06:41.311Z,14.90
2023-03-30T18:09:17.443Z,14.80
2023-03-30T18:11:46.346Z,14.70
2023-03-30T18:14:14.873Z,14.70
2023-03-30T18:16:45.570Z,14.80
2023-03-30T18:19:14.502Z,14.80
2023-03-30T18:21:43.075Z,14.80
2023-03-30T18:24:13.030Z,14.80
2023-03-30T18:26:43.715Z,14.80
2023-03-30T18:29:23.444Z,14.80
2023-03-30T18:31:51.989Z,14.80
2023-03-30T18:34:20.704Z,14.80
2023-03-30T18:36:49.246Z,14.70
2023-03-30T18:39:23.421Z,14.60
2023-03-30T18:41:52.222Z,14.60
2023-03-30T18:44:21.614Z,14.50
2023-03-30T18:46:52.629Z,14.50
2023-03-30T18:49:23.785Z,14.40
2023-03-30T18:51:53.435Z,14.40
2023-03-30T18:54:23.963Z,14.30
2023-03-30T18:56:52.662Z,14.20
2023-03-30T18:59:23.095Z,14.20
2023-03-30T19:01:54.657Z,14.10
2023-03-30T19:04:23.551Z,13.90
2023-03-30T19:06:53.153Z,13.80
2023-03-30T19:09:36.488Z,13.80
2023-03-30T19:12:14.815Z,13.70
2023-03-30T19:14:43.545Z,13.50
2023-03-30T19:17:12.146Z,13.40
2023-03-30T19:19:40.630Z,13.30
2023-03-30T19:22:09.385Z,13.20
2023-03-30T19:24:39.393Z,13.10
2023-03-30T19:27:08.089Z,13.00
2023-03-30T19:29:36.785Z,12.90
2023-03-30T19:32:05.527Z,12.70
2023-03-30T19:34:34.206Z,12.60
2023-03-30T19:37:02.834Z,12.60
2023-03-30T19:39:31.516Z,12.50
2023-03-30T19:42:02.279Z,12.40
2023-03-30T19:44:30.929Z,12.30
2023-03-30T19:46:59.443Z,12.20
2023-03-30T19:49:28.389Z,12.20
2023-03-30T19:51:59.725Z,12.00
2023-03-30T19:54:28.564Z,12.00
2023-03-30T19:56:57.164Z,12.00
2023-03-30T19:59:29.057Z,11.90
2023-03-30T20:01:57.973Z,11.90
2023-03-30T20:04:26.828Z,11.80
2023-03-30T20:06:56.285Z,11.80
2023-03-30T20:09:25.754Z,11.70
2023-03-30T20:11:55.858Z,11.70
2023-03-30T20:14:26.674Z,11.50
2023-03-30T20:16:56.975Z,11.40
2023-03-30T20:19:30.418Z,11.30
2023-03-30T20:22:00.324Z,11.30
2023-03-30T20:24:32.313Z,11.20
2023-03-30T20:27:06.118Z,11.10
2023-03-30T20:30:03.409Z,11.00
2023-03-30T20:32:33.537Z,11.00
2023-03-30T20:35:18.793Z,10.90
2023-03-30T20:37:48.153Z,10.80
2023-03-30T20:40:17.480Z,10.70
2023-03-30T20:42:48.337Z,10.70
2023-03-30T20:45:26.309Z,10.70
2023-03-30T20:47:55.970Z,10.70
2023-03-30T20:50:26.070Z,10.70
2023-03-30T20:52:54.925Z,10.60
2023-03-30T20:55:23.659Z,10.60
2023-03-30T20:57:52.724Z,10.50
2023-03-30T21:00:24.299Z,10.40
2023-03-30T21:02:54.296Z,10.50
2023-03-30T21:05:23.169Z,10.50
2023-03-30T21:07:55.261Z,10.50
2023-03-30T21:10:24.511Z,10.50
2023-03-30T21:12:53.437Z,10.50
2023-03-30T21:15:24.102Z,10.50
2023-03-30T21:17:53.087Z,10.50
2023-03-30T21:20:22.043Z,10.50
2023-03-30T21:22:50.697Z,10.50
2023-03-30T21:25:19.896Z,10.40
2023-03-30T21:27:48.937Z,10.40
2023-03-30T21:30:18.047Z,10.40
2023-03-30T21:32:48.203Z,10.40
2023-03-30T21:35:17.099Z,10.40
2023-03-30T21:37:45.881Z,10.40
2023-03-30T21:40:15.260Z,10.30
2023-03-30T21:42:44.254Z,10.10
2023-03-30T21:45:14.538Z,10.10
2023-03-30T21:47:43.307Z,10.10
2023-03-30T21:50:13.687Z,10.10
2023-03-30T21:52:42.506Z,10.10
2023-03-30T21:55:11.394Z,10.00
2023-03-30T21:57:40.037Z,10.00
2023-03-30T22:00:11.694Z,9.90
2023-03-30T22:02:40.689Z,9.90
2023-03-30T22:05:09.939Z,9.90
2023-03-30T22:07:40.825Z,9.90
2023-03-30T22:10:12.847Z,9.90
2023-03-30T22:12:41.958Z,9.90
2023-03-30T22:15:12.256Z,9.90
2023-03-30T22:17:42.772Z,9.80
2023-03-30T22:20:13.173Z,9.80
2023-03-30T22:22:43.836Z,9.80
2023-03-30T22:25:12.781Z,9.70
2023-03-30T22:27:41.815Z,9.60
2023-03-30T22:30:12.092Z,9.60
2023-03-30T22:32:40.899Z,9.70
2023-03-30T22:35:11.413Z,9.70
2023-03-30T22:37:40.238Z,9.70
2023-03-30T22:40:12.074Z,9.80
2023-03-30T22:42:40.697Z,9.80
2023-03-30T22:45:11.529Z,9.80
2023-03-30T22:47:40.226Z,9.70
2023-03-30T22:50:10.541Z,9.70
2023-03-30T22:52:39.349Z,9.70
2023-03-30T22:55:10.838Z,9.70
2023-03-30T22:57:39.695Z,9.70
2023-03-30T23:00:10.649Z,9.70
2023-03-30T23:02:40.058Z,9.70
2023-03-30T23:05:10.102Z,9.70
2023-03-30T23:07:40.492Z,9.60
2023-03-30T23:10:15.417Z,9.60
2023-03-30T23:12:44.830Z,9.70
2023-03-30T23:15:14.554Z,9.70
2023-03-30T23:17:43.407Z,9.60
2023-03-30T23:20:13.279Z,9.50
2023-03-30T23:22:42.319Z,9.60
2023-03-30T23:25:12.513Z,9.50
2023-03-30T23:27:41.227Z,9.50
2023-03-30T23:30:11.412Z,9.60
2023-03-30T23:32:39.945Z,9.50
2023-03-30T23:35:09.585Z,9.60
2023-03-30T23:37:38.419Z,9.40
2023-03-30T23:40:09.673Z,9.60
2023-03-30T23:42:40.017Z,9.60
2023-03-30T23:45:10.263Z,9.60
2023-03-30T23:47:39.096Z,9.60
2023-03-30T23:50:10.315Z,9.60
2023-03-30T23:52:38.980Z,9.40
2023-03-30T23:55:08.012Z,9.60
2023-03-30T23:57:38.031Z,9.60
